Maersk Iowa — KABL — position and weather

sailwx.info

Track history (hours):
 
Tides and Currents Weather Stations Pressure Air Temp Water Temp Dewpoint Dewpoint Depression Visibility Wind Speed Wind Dir Waves Ship Positions

Maersk Iowa

Owner: Maersk Line, Limited, Norfolk, VA. More information available from US FCC via Universal Licensing System and Coast Guard Vessel Documentation Center.

Last reported at 2018-Jul-22 14:30 UTC. Time now 2018-Jul-22 14:45 UTC.
Position N 51°17' E 004°15'.

Length 292 m; draft 12.5 m.

Type: Ship (hazmat cat D). MMSI: 367606000.

Date/timePositionNaut miles runAvg speedWind from/ knotsBaromVisibWave heightAir tempDewpointWater temp
2018-Jul-22 14:30N 51°17' E 004°15'0 0.0
2018-Jul-22 14:00N 51°17' E 004°15'0 0.0
2018-Jul-22 13:30N 51°17' E 004°15'0 0.0
2018-Jul-22 13:00N 51°17' E 004°15'0 0.0
2018-Jul-22 12:30N 51°17' E 004°15'0 0.0
2018-Jul-22 12:00N 51°17' E 004°15'0 0.0
2018-Jul-22 11:30N 51°17' E 004°15'1 1.3
2018-Jul-22 11:00N 51°18' E 004°16'1 2.7
2018-Jul-22 10:30N 51°19' E 004°16'5 9.0
2018-Jul-22 10:00N 51°23' E 004°13'510.3
2018-Jul-22 09:31N 51°22' E 004°05'510.5
2018-Jul-22 09:00N 51°26' E 003°58'714.1
2018-Jul-22 08:30N 51°21' E 003°50'612.4
2018-Jul-22 08:00N 51°25' E 003°42'510.6
2018-Jul-22 07:30N 51°25' E 003°34'611.2
2018-Jul-22 07:00N 51°25' E 003°25'611.1
2018-Jul-22 06:31N 51°24' E 003°16'612.1
2018-Jul-22 06:01N 51°24' E 003°07'713.2
2018-Jul-22 05:30N 51°25' E 002°56'714.0
2018-Jul-22 05:00N 51°24' E 002°45'510.1
2018-Jul-22 04:30N 51°22' E 002°38'5 9.4
2018-Jul-22 04:00N 51°22' E 002°30'713.6
2018-Jul-22 03:30N 51°19' E 002°20'815.1
2018-Jul-22 03:00N 51°15' E 002°10'917.6
2018-Jul-22 02:30N 51°12' E 001°57'1019.9
2018-Jul-22 02:00N 51°06' E 001°44'1019.2
2018-Jul-22 01:30N 50°58' E 001°34'1019.3
2018-Jul-22 01:00N 50°50' E 001°27'1019.8
2018-Jul-22 00:30N 50°41' E 001°20'1019.8
2018-Jul-22 00:00N 50°33' E 001°10'1019.4
2018-Jul-21 23:30N 50°28' E 000°57'1020.0
2018-Jul-21 23:00N 50°26' E 000°42'1019.9
2018-Jul-21 22:30N 50°25' E 000°26'1519.7
2018-Jul-21 21:44N 50°21' E 000°03'419.7
2018-Jul-21 21:30N 50°20' W 000°04'1019.6
2018-Jul-21 21:00N 50°20' W 000°19'1019.1
2018-Jul-21 20:30N 50°20' W 000°34'918.7
2018-Jul-21 20:00N 50°20' W 000°49'918.5
2018-Jul-21 19:30N 50°22' W 001°03'918.6
2018-Jul-21 19:00N 50°22' W 001°18'1019.1
2018-Jul-21 18:30N 50°22' W 001°33'1019.8
2018-Jul-21 18:00N 50°22' W 001°48'81067.9
2018-Jul-21 18:00N 50°18' W 002°00'5 9.6 270 / 51016.310.8 20.014.917.7
2018-Jul-21 17:30N 50°22' W 002°04'1021.1
2018-Jul-21 17:00N 50°22' W 002°21'1121.1
2018-Jul-21 16:30N 50°23' W 002°37'1120.8
2018-Jul-21 16:00N 50°24' W 002°54'1020.6
2018-Jul-21 15:30N 50°24' W 003°10'917.7
2018-Jul-21 15:01N 50°25' W 003°23'4 7.2
2018-Jul-21 14:31N 50°22' W 003°25'2020.2
2018-Jul-21 13:30N 50°04' W 003°40'1121.4
2018-Jul-21 13:00N 49°60' W 003°56'1121.4
2018-Jul-21 12:30N 49°55' W 004°11'1121.3
2018-Jul-21 12:00N 49°51' W 004°26'1121.3
2018-Jul-21 11:30N 49°46' W 004°40'11417.4
2018-Jul-21 05:00N 49°42' W 007°36'23321.2 010 / 151014.610.8 19.015.721.0
2018-Jul-20 18:00N 49°54' W 013°36'12020.0 340 / 101020.1 2.2 17.015.317.8
2018-Jul-20 12:00N 49°48' W 016°42'9716.1 330 / 121021.2 5.4 18.712.717.5
2018-Jul-20 06:00N 49°48' W 019°12'10216.9 300 / 161022.3 5.4 16.014.317.0
2018-Jul-20 00:00N 49°36' W 021°48'8617.2 190 / 281024.1 1.1 16.014.317.0
2018-Jul-19 19:00N 49°30' W 024°00'13116.4 290 / 201024.8 20.016.716.3
2018-Jul-19 11:00N 49°06' W 027°18'8717.5 220 / 121026.9 18.017.215.9
2018-Jul-19 06:00N 48°54' W 029°30'10617.6 330 / 171027.6 17.015.317.0
2018-Jul-19 00:00N 48°30' W 032°06'9916.5 190 / 111028.2 0.1 17.017.017.0
2018-Jul-18 18:00N 48°06' W 034°30'11519.1 200 / 111028.7 2.2 24.019.418.0
2018-Jul-18 12:00N 47°30' W 037°12'35519.7 190 / 131028.8 19.517.115.5
2018-Jul-17 18:00N 45°30' W 045°18'13823.0 190 / 241026.8 5.4 22.018.917.7
2018-Jul-17 12:00N 44°36' W 048°18'24120.1 180 / 261025.6 0.0 17.017.011.0
2018-Jul-17 00:00N 42°42' W 053°12'22418.6 180 / 251021.5 5.4 23.023.020.0
2018-Jul-16 12:00N 40°48' W 057°30'21818.2 200 / 211016.810.8 25.023.528.0
2018-Jul-16 00:00N 39°36' W 062°00'20016.7 140 / 18 10.8 24.523.822.5
2018-Jul-15 12:00N 38°24' W 066°00'22117.0 330 / 221012.4 5.4 24.021.024.0
2018-Jul-14 23:00N 37°12' W 070°24'17418.6 330 / 161019.110.8 24.814.329.0
2018-Jul-14 13:38N 36°52' W 074°00'316.6
2018-Jul-14 13:26N 36°51' W 074°04'716.0
2018-Jul-14 13:00N 36°51' W 074°13'815.8
2018-Jul-14 12:31N 36°51' W 074°23'815.8
2018-Jul-14 12:00N 36°50' W 074°33'4265.1
2018-Jul-14 12:00N 36°48' W 074°36'611.4 050 / 111021.427.0 24.021.026.0
2018-Jul-14 11:29N 36°50' W 074°43'1015.8
2018-Jul-14 10:52N 36°49' W 074°55'615.8
2018-Jul-14 10:29N 36°49' W 075°03'715.6
2018-Jul-14 10:01N 36°49' W 075°12'815.9
2018-Jul-14 09:30N 36°48' W 075°22'816.2
2018-Jul-14 09:00N 36°48' W 075°32'1116.3
2018-Jul-14 08:21N 36°48' W 075°45'616.8
2018-Jul-14 07:59N 36°51' W 075°52'916.3
2018-Jul-14 07:28N 36°57' W 076°00'712.5
2018-Jul-14 06:53N 36°59' W 076°09'511.9
2018-Jul-14 06:28N 37°00' W 076°15'510.4
2018-Jul-14 05:59N 36°58' W 076°20'4 9.1
2018-Jul-14 05:30N 36°54' W 076°20'1 2.3
2018-Jul-14 05:00N 36°53' W 076°21'0 0.0
2018-Jul-14 04:30N 36°53' W 076°21'0 0.0
2018-Jul-14 02:48N 36°53' W 076°21'0 0.0
2018-Jul-14 02:30N 36°53' W 076°21'0 0.0
2018-Jul-14 00:54N 36°53' W 076°21'0 0.0
2018-Jul-13 23:06N 36°53' W 076°21'0 0.3
2018-Jul-13 22:57N 36°53' W 076°21'0 0.0
2018-Jul-13 17:36N 36°53' W 076°21'0 0.0
2018-Jul-13 17:18N 36°53' W 076°21'0 0.0
2018-Jul-13 15:54N 36°53' W 076°21'0 0.0
2018-Jul-13 15:30N 36°53' W 076°21'0 0.3
2018-Jul-13 15:00N 36°53' W 076°21'3 5.1
2018-Jul-13 14:30N 36°55' W 076°20'2111.4
2018-Jul-13 12:39N 36°54' W 075°54'1 9.4
2018-Jul-13 12:31N 36°54' W 075°53'5 9.5
2018-Jul-13 12:00N 36°51' W 075°48'6707.8
2018-Jul-13 12:00N 36°48' W 075°42'1 2.0 040 / 211021.610.8 24.021.025.0
2018-Jul-13 11:30N 36°48' W 075°43'1015.4
2018-Jul-13 10:51N 36°40' W 075°35'13719.9
2018-Jul-13 04:00N 34°24' W 075°42'10325.8 200 / 101020.2 5.4 30.024.328.0
2018-Jul-13 00:00N 33°00' W 076°54'   220 / 81019.410.8 31.022.330.0
Track history (hours):
 
Tides and Currents Weather Stations Pressure Air Temp Water Temp Dewpoint Dewpoint Depression Visibility Wind Speed Wind Dir Waves Ship Positions

Maersk Iowa

Owner: Maersk Line, Limited, Norfolk, VA. More information available from US FCC via Universal Licensing System and Coast Guard Vessel Documentation Center.

Last reported at 2018-Jul-22 14:30 UTC. Time now 2018-Jul-22 14:45 UTC.
Position N 51°17' E 004°15'.

Length 292 m; draft 12.5 m.

Type: Ship (hazmat cat D). MMSI: 367606000.

Date/timePositionNaut miles runAvg speedWind from/ knotsBaromVisibWave heightAir tempDewpointWater temp
2018-Jul-22 14:30N 51°17' E 004°15'0 0.0
2018-Jul-22 14:00N 51°17' E 004°15'0 0.0
2018-Jul-22 13:30N 51°17' E 004°15'0 0.0
2018-Jul-22 13:00N 51°17' E 004°15'0 0.0
2018-Jul-22 12:30N 51°17' E 004°15'0 0.0
2018-Jul-22 12:00N 51°17' E 004°15'0 0.0
2018-Jul-22 11:30N 51°17' E 004°15'1 1.3
2018-Jul-22 11:00N 51°18' E 004°16'1 2.7
2018-Jul-22 10:30N 51°19' E 004°16'5 9.0
2018-Jul-22 10:00N 51°23' E 004°13'510.3
2018-Jul-22 09:31N 51°22' E 004°05'510.5
2018-Jul-22 09:00N 51°26' E 003°58'714.1
2018-Jul-22 08:30N 51°21' E 003°50'612.4
2018-Jul-22 08:00N 51°25' E 003°42'510.6
2018-Jul-22 07:30N 51°25' E 003°34'611.2
2018-Jul-22 07:00N 51°25' E 003°25'611.1
2018-Jul-22 06:31N 51°24' E 003°16'612.1
2018-Jul-22 06:01N 51°24' E 003°07'713.2
2018-Jul-22 05:30N 51°25' E 002°56'714.0
2018-Jul-22 05:00N 51°24' E 002°45'510.1
2018-Jul-22 04:30N 51°22' E 002°38'5 9.4
2018-Jul-22 04:00N 51°22' E 002°30'713.6
2018-Jul-22 03:30N 51°19' E 002°20'815.1
2018-Jul-22 03:00N 51°15' E 002°10'917.6
2018-Jul-22 02:30N 51°12' E 001°57'1019.9
2018-Jul-22 02:00N 51°06' E 001°44'1019.2
2018-Jul-22 01:30N 50°58' E 001°34'1019.3
2018-Jul-22 01:00N 50°50' E 001°27'1019.8
2018-Jul-22 00:30N 50°41' E 001°20'1019.8
2018-Jul-22 00:00N 50°33' E 001°10'1019.4
2018-Jul-21 23:30N 50°28' E 000°57'1020.0
2018-Jul-21 23:00N 50°26' E 000°42'1019.9
2018-Jul-21 22:30N 50°25' E 000°26'1519.7
2018-Jul-21 21:44N 50°21' E 000°03'419.7
2018-Jul-21 21:30N 50°20' W 000°04'1019.6
2018-Jul-21 21:00N 50°20' W 000°19'1019.1
2018-Jul-21 20:30N 50°20' W 000°34'918.7
2018-Jul-21 20:00N 50°20' W 000°49'918.5
2018-Jul-21 19:30N 50°22' W 001°03'918.6
2018-Jul-21 19:00N 50°22' W 001°18'1019.1
2018-Jul-21 18:30N 50°22' W 001°33'1019.8
2018-Jul-21 18:00N 50°22' W 001°48'81067.9
2018-Jul-21 18:00N 50°18' W 002°00'5 9.6 270 / 51016.310.8 20.014.917.7
2018-Jul-21 17:30N 50°22' W 002°04'1021.1
2018-Jul-21 17:00N 50°22' W 002°21'1121.1
2018-Jul-21 16:30N 50°23' W 002°37'1120.8
2018-Jul-21 16:00N 50°24' W 002°54'1020.6
2018-Jul-21 15:30N 50°24' W 003°10'917.7
2018-Jul-21 15:01N 50°25' W 003°23'4 7.2
2018-Jul-21 14:31N 50°22' W 003°25'2020.2
2018-Jul-21 13:30N 50°04' W 003°40'1121.4
2018-Jul-21 13:00N 49°60' W 003°56'1121.4
2018-Jul-21 12:30N 49°55' W 004°11'1121.3
2018-Jul-21 12:00N 49°51' W 004°26'1121.3
2018-Jul-21 11:30N 49°46' W 004°40'11417.4
2018-Jul-21 05:00N 49°42' W 007°36'23321.2 010 / 151014.610.8 19.015.721.0
2018-Jul-20 18:00N 49°54' W 013°36'12020.0 340 / 101020.1 2.2 17.015.317.8
2018-Jul-20 12:00N 49°48' W 016°42'9716.1 330 / 121021.2 5.4 18.712.717.5
2018-Jul-20 06:00N 49°48' W 019°12'10216.9 300 / 161022.3 5.4 16.014.317.0
2018-Jul-20 00:00N 49°36' W 021°48'8617.2 190 / 281024.1 1.1 16.014.317.0
2018-Jul-19 19:00N 49°30' W 024°00'13116.4 290 / 201024.8 20.016.716.3
2018-Jul-19 11:00N 49°06' W 027°18'8717.5 220 / 121026.9 18.017.215.9
2018-Jul-19 06:00N 48°54' W 029°30'10617.6 330 / 171027.6 17.015.317.0
2018-Jul-19 00:00N 48°30' W 032°06'9916.5 190 / 111028.2 0.1 17.017.017.0
2018-Jul-18 18:00N 48°06' W 034°30'11519.1 200 / 111028.7 2.2 24.019.418.0
2018-Jul-18 12:00N 47°30' W 037°12'35519.7 190 / 131028.8 19.517.115.5
2018-Jul-17 18:00N 45°30' W 045°18'13823.0 190 / 241026.8 5.4 22.018.917.7
2018-Jul-17 12:00N 44°36' W 048°18'24120.1 180 / 261025.6 0.0 17.017.011.0
2018-Jul-17 00:00N 42°42' W 053°12'22418.6 180 / 251021.5 5.4 23.023.020.0
2018-Jul-16 12:00N 40°48' W 057°30'21818.2 200 / 211016.810.8 25.023.528.0
2018-Jul-16 00:00N 39°36' W 062°00'20016.7 140 / 18 10.8 24.523.822.5
2018-Jul-15 12:00N 38°24' W 066°00'22117.0 330 / 221012.4 5.4 24.021.024.0
2018-Jul-14 23:00N 37°12' W 070°24'17418.6 330 / 161019.110.8 24.814.329.0
2018-Jul-14 13:38N 36°52' W 074°00'316.6
2018-Jul-14 13:26N 36°51' W 074°04'716.0
2018-Jul-14 13:00N 36°51' W 074°13'815.8
2018-Jul-14 12:31N 36°51' W 074°23'815.8
2018-Jul-14 12:00N 36°50' W 074°33'4265.1
2018-Jul-14 12:00N 36°48' W 074°36'611.4 050 / 111021.427.0 24.021.026.0
2018-Jul-14 11:29N 36°50' W 074°43'1015.8
2018-Jul-14 10:52N 36°49' W 074°55'615.8
2018-Jul-14 10:29N 36°49' W 075°03'715.6
2018-Jul-14 10:01N 36°49' W 075°12'815.9
2018-Jul-14 09:30N 36°48' W 075°22'816.2
2018-Jul-14 09:00N 36°48' W 075°32'1116.3
2018-Jul-14 08:21N 36°48' W 075°45'616.8
2018-Jul-14 07:59N 36°51' W 075°52'916.3
2018-Jul-14 07:28N 36°57' W 076°00'712.5
2018-Jul-14 06:53N 36°59' W 076°09'511.9
2018-Jul-14 06:28N 37°00' W 076°15'510.4
2018-Jul-14 05:59N 36°58' W 076°20'4 9.1
2018-Jul-14 05:30N 36°54' W 076°20'1 2.3
2018-Jul-14 05:00N 36°53' W 076°21'0 0.0
2018-Jul-14 04:30N 36°53' W 076°21'0 0.0
2018-Jul-14 02:48N 36°53' W 076°21'0 0.0
2018-Jul-14 02:30N 36°53' W 076°21'0 0.0
2018-Jul-14 00:54N 36°53' W 076°21'0 0.0
2018-Jul-13 23:06N 36°53' W 076°21'0 0.3
2018-Jul-13 22:57N 36°53' W 076°21'0 0.0
2018-Jul-13 17:36N 36°53' W 076°21'0 0.0
2018-Jul-13 17:18N 36°53' W 076°21'0 0.0
2018-Jul-13 15:54N 36°53' W 076°21'0 0.0
2018-Jul-13 15:30N 36°53' W 076°21'0 0.3
2018-Jul-13 15:00N 36°53' W 076°21'3 5.1
2018-Jul-13 14:30N 36°55' W 076°20'2111.4
2018-Jul-13 12:39N 36°54' W 075°54'1 9.4
2018-Jul-13 12:31N 36°54' W 075°53'5 9.5
2018-Jul-13 12:00N 36°51' W 075°48'6707.8
2018-Jul-13 12:00N 36°48' W 075°42'1 2.0 040 / 211021.610.8 24.021.025.0
2018-Jul-13 11:30N 36°48' W 075°43'1015.4
2018-Jul-13 10:51N 36°40' W 075°35'13719.9
2018-Jul-13 04:00N 34°24' W 075°42'10325.8 200 / 101020.2 5.4 30.024.328.0
2018-Jul-13 00:00N 33°00' W 076°54'   220 / 81019.410.8 31.022.330.0

Dump ship's entire track history